createdAt,value
2023-05-23T00:01:46.766Z,92.02
2023-05-23T00:04:18.740Z,91.71
2023-05-23T00:06:50.645Z,92.23
2023-05-23T00:09:19.258Z,91.79
2023-05-23T00:11:47.593Z,91.32
2023-05-23T00:14:16.363Z,91.13
2023-05-23T00:16:46.393Z,90.55
2023-05-23T00:19:16.159Z,90.24
2023-05-23T00:21:45.720Z,89.91
2023-05-23T00:24:18.797Z,89.41
2023-05-23T00:26:47.470Z,88.56
2023-05-23T00:29:16.843Z,87.42
2023-05-23T00:31:46.681Z,86.07
2023-05-23T00:34:15.593Z,85.59
2023-05-23T00:36:44.057Z,85.60
2023-05-23T00:39:19.043Z,84.96
2023-05-23T00:41:51.786Z,84.95
2023-05-23T00:44:22.105Z,84.42
2023-05-23T00:46:53.066Z,84.54
2023-05-23T00:49:21.408Z,84.01
2023-05-23T00:51:50.187Z,83.93
2023-05-23T00:54:32.223Z,83.47
2023-05-23T00:57:16.263Z,83.77
2023-05-23T00:59:46.850Z,84.01
2023-05-23T01:02:15.141Z,83.76
2023-05-23T01:04:44.177Z,84.23
2023-05-23T01:07:12.403Z,84.13
2023-05-23T01:09:40.772Z,84.29
2023-05-23T01:12:22.026Z,83.69
2023-05-23T01:15:06.701Z,84.84
2023-05-23T01:17:41.859Z,84.27
2023-05-23T01:20:12.794Z,84.32
2023-05-23T01:22:53.799Z,84.51
2023-05-23T01:25:29.243Z,84.66
2023-05-23T01:28:01.935Z,84.02
2023-05-23T01:30:46.827Z,84.62
2023-05-23T01:33:16.525Z,84.67
2023-05-23T01:35:45.386Z,84.33
2023-05-23T01:38:13.689Z,85.09
2023-05-23T01:40:42.161Z,85.15
2023-05-23T01:43:11.858Z,85.72
2023-05-23T01:45:40.806Z,85.59
2023-05-23T01:48:11.684Z,85.71
2023-05-23T01:50:40.826Z,85.50
2023-05-23T01:53:10.326Z,85.42
2023-05-23T01:55:39.782Z,85.70
2023-05-23T01:58:09.546Z,85.30
2023-05-23T02:00:39.431Z,85.49
2023-05-23T02:03:16.076Z,86.44
2023-05-23T02:05:44.595Z,86.43
2023-05-23T02:08:13.182Z,86.19
2023-05-23T02:10:41.443Z,86.46
2023-05-23T02:13:10.018Z,86.84
2023-05-23T02:15:39.793Z,86.65
2023-05-23T02:18:08.505Z,86.62
2023-05-23T02:20:36.850Z,86.78
2023-05-23T02:23:05.350Z,86.90
2023-05-23T02:25:33.600Z,87.18
2023-05-23T02:28:02.086Z,87.44
2023-05-23T02:30:30.650Z,87.11
2023-05-23T02:33:00.268Z,87.55
2023-05-23T02:35:58.639Z,87.41
2023-05-23T02:38:27.807Z,87.36
2023-05-23T02:40:57.639Z,87.75
2023-05-23T02:43:26.031Z,87.34
2023-05-23T02:45:54.445Z,87.71
2023-05-23T02:48:24.160Z,87.86
2023-05-23T02:50:58.238Z,88.12
2023-05-23T02:53:26.917Z,88.19
2023-05-23T02:55:55.169Z,88.48
2023-05-23T02:58:24.089Z,87.49
2023-05-23T03:00:52.952Z,87.44
2023-05-23T03:03:22.160Z,87.32
2023-05-23T03:06:00.624Z,87.43
2023-05-23T03:08:29.246Z,87.76
2023-05-23T03:10:57.758Z,87.54
2023-05-23T03:13:26.491Z,88.10
2023-05-23T03:16:00.496Z,87.49
2023-05-23T03:18:29.193Z,87.50
2023-05-23T03:20:57.800Z,87.51
2023-05-23T03:23:27.581Z,87.97
2023-05-23T03:25:56.153Z,87.87
2023-05-23T03:28:24.741Z,88.13
2023-05-23T03:30:53.604Z,88.02
2023-05-23T03:33:22.472Z,88.79
2023-05-23T03:35:51.536Z,88.82
2023-05-23T03:38:20.176Z,89.18
2023-05-23T03:40:50.123Z,89.20
2023-05-23T03:43:18.740Z,88.88
2023-05-23T03:45:47.565Z,88.97
2023-05-23T03:48:16.102Z,89.94
2023-05-23T03:50:44.658Z,90.43
2023-05-23T03:53:13.496Z,91.12
2023-05-23T03:55:42.314Z,91.46
2023-05-23T03:58:12.574Z,91.19
2023-05-23T04:00:41.198Z,90.95
2023-05-23T04:03:10.894Z,91.58
2023-05-23T04:05:39.786Z,92.36
2023-05-23T04:08:08.816Z,92.11
2023-05-23T04:10:37.488Z,91.22
2023-05-23T04:13:06.677Z,91.09
2023-05-23T04:15:36.574Z,91.85
2023-05-23T04:18:05.356Z,92.06
2023-05-23T04:20:34.148Z,91.97
2023-05-23T04:23:02.792Z,91.01
2023-05-23T04:25:31.456Z,90.71
2023-05-23T04:27:59.867Z,90.67
2023-05-23T04:30:30.470Z,90.44
2023-05-23T04:33:00.977Z,90.25
2023-05-23T04:35:43.872Z,90.40
2023-05-23T04:38:15.235Z,90.52
2023-05-23T04:40:43.676Z,89.80
2023-05-23T04:43:14.507Z,89.73
2023-05-23T04:45:44.048Z,89.52
2023-05-23T04:48:17.160Z,89.68
2023-05-23T04:50:48.798Z,90.24
2023-05-23T04:53:17.623Z,89.65
2023-05-23T04:55:46.534Z,89.71
2023-05-23T04:58:15.649Z,89.27
2023-05-23T05:00:44.901Z,89.66
2023-05-23T05:03:14.792Z,89.74
2023-05-23T05:05:43.175Z,89.18
2023-05-23T05:08:11.575Z,88.58
2023-05-23T05:10:41.766Z,89.13
2023-05-23T05:13:10.410Z,88.98
2023-05-23T05:15:38.707Z,89.06
2023-05-23T05:18:07.365Z,89.73
2023-05-23T05:20:37.306Z,89.90
2023-05-23T05:23:05.671Z,90.22
2023-05-23T05:25:36.159Z,90.40
2023-05-23T05:28:06.136Z,90.72
2023-05-23T05:30:35.333Z,90.99
2023-05-23T05:33:04.372Z,90.70
2023-05-23T05:35:32.887Z,90.25
2023-05-23T05:38:02.632Z,89.54
2023-05-23T05:40:30.911Z,89.04
2023-05-23T05:42:59.510Z,89.01
2023-05-23T05:45:28.442Z,88.98
2023-05-23T05:47:56.813Z,89.14
2023-05-23T05:50:25.416Z,89.29
2023-05-23T05:53:09.659Z,89.10
2023-05-23T05:55:38.406Z,88.32
2023-05-23T05:58:07.171Z,88.40
2023-05-23T06:00:42.133Z,88.67
2023-05-23T06:03:11.122Z,88.35
2023-05-23T06:05:42.323Z,88.10
2023-05-23T06:08:21.589Z,86.89
2023-05-23T06:10:50.121Z,86.93
2023-05-23T06:13:18.639Z,87.08
2023-05-23T06:15:47.184Z,86.48
2023-05-23T06:18:16.319Z,85.66
2023-05-23T06:20:44.732Z,85.74
2023-05-23T06:23:14.192Z,85.92
2023-05-23T06:25:44.063Z,85.59
2023-05-23T06:28:12.378Z,85.34
2023-05-23T06:30:41.104Z,84.91
2023-05-23T06:33:09.736Z,85.17
2023-05-23T06:35:38.393Z,85.74
2023-05-23T06:38:12.835Z,85.63
2023-05-23T06:40:41.686Z,85.42
2023-05-23T06:43:16.497Z,84.46
2023-05-23T06:45:46.843Z,84.29
2023-05-23T06:48:15.132Z,84.21
2023-05-23T06:50:43.607Z,83.36
2023-05-23T06:53:12.085Z,83.10
2023-05-23T06:55:40.387Z,82.99
2023-05-23T06:58:09.024Z,82.38
2023-05-23T07:00:39.353Z,81.59
2023-05-23T07:03:08.082Z,81.06
2023-05-23T07:05:40.091Z,81.24
2023-05-23T07:08:10.812Z,79.79
2023-05-23T07:10:41.691Z,77.95
2023-05-23T07:13:10.486Z,79.22
2023-05-23T07:15:40.241Z,77.84
2023-05-23T07:18:08.845Z,78.05
2023-05-23T07:20:38.374Z,77.70
2023-05-23T07:23:06.686Z,78.10
2023-05-23T07:25:35.097Z,79.19
2023-05-23T07:28:03.367Z,79.68
2023-05-23T07:30:33.252Z,80.09
2023-05-23T07:33:07.785Z,81.28
2023-05-23T07:35:36.116Z,81.55
2023-05-23T07:38:05.341Z,80.88
2023-05-23T07:40:33.680Z,81.00
2023-05-23T07:43:01.990Z,80.19
2023-05-23T07:45:30.435Z,80.12
2023-05-23T07:47:58.812Z,78.10
2023-05-23T07:50:28.559Z,78.31
2023-05-23T07:52:56.876Z,77.65
2023-05-23T07:55:25.552Z,77.40
2023-05-23T07:57:54.989Z,77.33
2023-05-23T08:00:23.421Z,76.96
2023-05-23T08:02:52.301Z,76.46
2023-05-23T08:05:22.827Z,75.93
2023-05-23T08:07:54.338Z,75.01
2023-05-23T08:10:22.837Z,74.51
2023-05-23T08:12:51.305Z,74.80
2023-05-23T08:15:19.849Z,74.54
2023-05-23T08:17:48.436Z,75.17
2023-05-23T08:20:16.970Z,75.85
2023-05-23T08:22:45.541Z,76.93
2023-05-23T08:25:15.220Z,77.01
2023-05-23T08:27:43.527Z,78.05
2023-05-23T08:30:12.632Z,79.36
2023-05-23T08:32:41.054Z,79.48
2023-05-23T08:35:09.636Z,80.57
2023-05-23T08:37:38.144Z,80.29
2023-05-23T08:40:08.869Z,80.06
2023-05-23T08:42:38.816Z,79.51
2023-05-23T08:45:07.808Z,79.00
2023-05-23T08:47:38.656Z,79.40
2023-05-23T08:50:08.145Z,78.80
2023-05-23T08:52:38.878Z,78.82
2023-05-23T08:55:07.943Z,78.32
2023-05-23T08:57:38.025Z,77.91
2023-05-23T09:00:14.759Z,77.65
2023-05-23T09:02:45.086Z,76.81
2023-05-23T09:05:14.035Z,75.79
2023-05-23T09:07:42.770Z,74.57
2023-05-23T09:10:12.263Z,73.19
2023-05-23T09:12:40.667Z,73.69
2023-05-23T09:15:11.549Z,73.54
2023-05-23T09:17:54.760Z,74.85
2023-05-23T09:20:23.131Z,75.12
2023-05-23T09:22:51.530Z,75.02
2023-05-23T09:25:20.076Z,73.79
2023-05-23T09:27:48.538Z,72.37
2023-05-23T09:30:18.658Z,71.02
2023-05-23T09:33:00.201Z,70.79
2023-05-23T09:35:30.764Z,70.91
2023-05-23T09:38:00.207Z,72.32
2023-05-23T09:40:32.948Z,72.00
2023-05-23T09:43:03.569Z,71.32
2023-05-23T09:45:34.151Z,71.03
2023-05-23T09:48:02.747Z,70.92
2023-05-23T09:50:32.359Z,71.05
2023-05-23T09:53:01.423Z,72.26
2023-05-23T09:55:29.812Z,73.47
2023-05-23T09:57:59.675Z,75.04
2023-05-23T10:00:28.615Z,74.85
2023-05-23T10:03:08.095Z,74.11
2023-05-23T10:05:39.124Z,73.32
2023-05-23T10:08:10.677Z,73.09
2023-05-23T10:11:02.672Z,72.35
2023-05-23T10:13:33.067Z,72.71
2023-05-23T10:16:16.595Z,72.78
2023-05-23T10:18:48.426Z,73.28
2023-05-23T10:21:20.988Z,73.29
2023-05-23T10:23:57.336Z,71.80
2023-05-23T10:26:28.377Z,69.94
2023-05-23T10:28:58.386Z,67.53
2023-05-23T10:31:28.146Z,61.21
2023-05-23T10:34:01.950Z,58.83
2023-05-23T10:36:34.658Z,57.84
2023-05-23T10:39:07.851Z,56.66
2023-05-23T10:41:40.044Z,55.56
2023-05-23T10:44:11.638Z,56.13
2023-05-23T10:46:54.020Z,56.17
2023-05-23T10:49:39.141Z,56.78
2023-05-23T10:52:08.295Z,56.97
2023-05-23T10:54:37.051Z,55.42
2023-05-23T10:57:06.268Z,54.86
2023-05-23T10:59:34.666Z,54.39
2023-05-23T11:02:04.548Z,54.04
2023-05-23T11:04:34.905Z,53.93
2023-05-23T11:07:03.280Z,52.15
2023-05-23T11:09:31.597Z,54.11
2023-05-23T11:12:05.468Z,53.11
2023-05-23T11:14:35.738Z,53.73
2023-05-23T11:17:16.449Z,55.87
2023-05-23T11:19:59.859Z,55.51
2023-05-23T11:22:28.807Z,56.14
2023-05-23T11:24:58.114Z,56.64
2023-05-23T11:27:29.890Z,55.18
2023-05-23T11:29:58.993Z,53.44
2023-05-23T11:32:29.088Z,50.92
2023-05-23T11:35:00.001Z,50.41
2023-05-23T11:37:28.597Z,49.95
2023-05-23T11:39:56.945Z,48.92
2023-05-23T11:42:25.244Z,48.40
2023-05-23T11:44:53.895Z,47.92
2023-05-23T11:47:22.412Z,48.09
2023-05-23T11:49:51.285Z,49.40
2023-05-23T11:52:21.171Z,46.15
2023-05-23T11:54:49.624Z,41.33
2023-05-23T11:57:18.110Z,36.48
2023-05-23T11:59:47.245Z,31.42
2023-05-23T12:02:16.087Z,29.26
2023-05-23T12:04:44.542Z,27.40
2023-05-23T12:07:13.096Z,26.66
2023-05-23T12:09:46.577Z,26.64
2023-05-23T12:12:15.279Z,27.33
2023-05-23T12:14:44.766Z,26.07
2023-05-23T12:17:13.974Z,25.75
2023-05-23T12:19:46.804Z,26.15
2023-05-23T12:22:15.189Z,25.50
2023-05-23T12:24:48.016Z,23.84
2023-05-23T12:27:17.463Z,25.17
2023-05-23T12:29:51.111Z,23.73
2023-05-23T12:32:19.639Z,26.33
2023-05-23T12:34:48.164Z,27.62
2023-05-23T12:37:20.519Z,27.26
2023-05-23T12:39:51.037Z,30.46
2023-05-23T12:42:19.453Z,31.88
2023-05-23T12:44:52.909Z,33.60
2023-05-23T12:47:21.989Z,32.32
2023-05-23T12:49:50.553Z,31.74
2023-05-23T12:52:19.183Z,29.74
2023-05-23T12:54:47.678Z,26.45
2023-05-23T12:57:17.410Z,26.14
2023-05-23T12:59:45.986Z,26.14
2023-05-23T13:02:14.232Z,27.96
2023-05-23T13:04:42.600Z,30.55
2023-05-23T13:07:10.884Z,32.20
2023-05-23T13:09:40.000Z,33.91
2023-05-23T13:12:09.282Z,35.29
2023-05-23T13:14:39.028Z,32.87
2023-05-23T13:17:07.495Z,32.37
2023-05-23T13:19:36.443Z,31.64
2023-05-23T13:22:05.930Z,32.18
2023-05-23T13:24:36.332Z,31.84
2023-05-23T13:27:05.444Z,32.25
2023-05-23T13:29:34.018Z,27.95
2023-05-23T13:32:23.623Z,25.13
2023-05-23T13:34:52.114Z,26.60
2023-05-23T13:37:22.762Z,26.95
2023-05-23T13:39:51.012Z,24.93
2023-05-23T13:42:19.381Z,24.98
2023-05-23T13:44:47.628Z,24.94
2023-05-23T13:47:16.686Z,26.48
2023-05-23T13:49:46.960Z,26.34
2023-05-23T13:52:15.302Z,25.98
2023-05-23T13:54:43.704Z,25.21
2023-05-23T13:57:12.117Z,25.10
2023-05-23T13:59:40.510Z,26.90
2023-05-23T14:02:09.010Z,26.69
2023-05-23T14:04:37.361Z,25.87
2023-05-23T14:07:07.185Z,26.38
2023-05-23T14:09:35.593Z,27.39
2023-05-23T14:12:04.099Z,26.22
2023-05-23T14:14:32.393Z,23.74
2023-05-23T14:17:01.172Z,25.79
2023-05-23T14:19:29.781Z,28.29
2023-05-23T14:22:01.899Z,29.72
2023-05-23T14:24:34.759Z,30.42
2023-05-23T14:27:03.713Z,31.12
2023-05-23T14:29:32.051Z,31.11
2023-05-23T14:32:02.979Z,32.74
2023-05-23T14:34:32.165Z,32.71
2023-05-23T14:37:02.016Z,30.70
2023-05-23T14:39:30.526Z,31.54
2023-05-23T14:42:00.474Z,29.46
2023-05-23T14:44:31.257Z,30.38
2023-05-23T14:47:03.318Z,29.32
2023-05-23T14:49:31.699Z,30.71
2023-05-23T14:52:00.171Z,32.06
2023-05-23T14:54:28.472Z,32.68
2023-05-23T14:56:56.843Z,32.12
2023-05-23T14:59:29.024Z,32.60
2023-05-23T15:01:58.359Z,33.08
2023-05-23T15:04:27.329Z,33.25
2023-05-23T15:06:56.261Z,33.64
2023-05-23T15:09:25.132Z,33.96
2023-05-23T15:11:58.227Z,35.52
2023-05-23T15:14:29.572Z,33.81
2023-05-23T15:16:59.219Z,33.52
2023-05-23T15:19:27.534Z,33.27
2023-05-23T15:21:56.014Z,34.08
2023-05-23T15:24:24.862Z,34.86
2023-05-23T15:26:53.415Z,36.20
2023-05-23T15:29:23.878Z,36.23
2023-05-23T15:31:54.774Z,37.25
2023-05-23T15:34:23.638Z,38.32
2023-05-23T15:36:53.475Z,38.86
2023-05-23T15:39:22.455Z,38.84
2023-05-23T15:41:58.232Z,39.22
2023-05-23T15:44:26.766Z,38.39
2023-05-23T15:46:56.905Z,37.85
2023-05-23T15:49:26.877Z,37.20
2023-05-23T15:51:55.893Z,37.38
2023-05-23T15:54:24.729Z,36.64
2023-05-23T15:56:53.232Z,35.94
2023-05-23T15:59:27.102Z,35.65
2023-05-23T16:01:57.110Z,36.27
2023-05-23T16:04:27.255Z,37.47
2023-05-23T16:06:55.946Z,38.24
2023-05-23T16:09:24.503Z,38.20
2023-05-23T16:11:54.041Z,37.01
2023-05-23T16:14:23.229Z,36.55
2023-05-23T16:16:52.272Z,36.40
2023-05-23T16:19:22.563Z,35.46
2023-05-23T16:21:51.111Z,36.07
2023-05-23T16:24:19.535Z,36.65
2023-05-23T16:26:48.169Z,35.70
2023-05-23T16:29:16.913Z,36.01
2023-05-23T16:31:46.040Z,36.75
2023-05-23T16:34:18.171Z,36.94
2023-05-23T16:36:47.945Z,38.02
2023-05-23T16:39:16.487Z,38.77
2023-05-23T16:41:45.036Z,38.40
2023-05-23T16:44:20.130Z,39.12
2023-05-23T16:46:49.287Z,39.33
2023-05-23T16:49:18.202Z,39.17
2023-05-23T16:51:49.908Z,38.82
2023-05-23T16:54:19.514Z,38.39
2023-05-23T16:56:48.270Z,39.43
2023-05-23T16:59:21.887Z,39.36
2023-05-23T17:01:51.578Z,40.68
2023-05-23T17:04:20.797Z,40.25
2023-05-23T17:06:51.821Z,41.80
2023-05-23T17:09:22.276Z,40.31
2023-05-23T17:11:55.097Z,40.81
2023-05-23T17:14:23.511Z,42.04
2023-05-23T17:16:52.558Z,42.19
2023-05-23T17:19:21.621Z,42.36
2023-05-23T17:21:52.024Z,42.39
2023-05-23T17:24:20.862Z,42.62
2023-05-23T17:26:52.218Z,43.58
2023-05-23T17:29:21.191Z,43.37
2023-05-23T17:31:51.515Z,43.99
2023-05-23T17:34:20.023Z,44.60
2023-05-23T17:36:48.834Z,45.04
2023-05-23T17:39:24.821Z,45.48
2023-05-23T17:41:53.761Z,45.99
2023-05-23T17:44:22.636Z,46.52
2023-05-23T17:46:51.367Z,46.33
2023-05-23T17:49:19.821Z,46.55
2023-05-23T17:51:48.430Z,46.63
2023-05-23T17:54:16.818Z,47.75
2023-05-23T17:56:46.776Z,47.32
2023-05-23T17:59:16.629Z,46.96
2023-05-23T18:01:44.918Z,47.75
2023-05-23T18:04:13.597Z,47.22
2023-05-23T18:06:42.469Z,48.06
2023-05-23T18:09:11.810Z,48.25
2023-05-23T18:11:40.066Z,48.18
2023-05-23T18:14:10.599Z,48.63
2023-05-23T18:16:39.354Z,48.95
2023-05-23T18:19:08.262Z,48.58
2023-05-23T18:21:36.888Z,48.48
2023-05-23T18:24:06.251Z,48.49
2023-05-23T18:26:34.778Z,49.06
2023-05-23T18:29:04.538Z,48.65
2023-05-23T18:31:34.485Z,48.72
2023-05-23T18:34:02.842Z,49.89
2023-05-23T18:36:34.102Z,49.85
2023-05-23T18:39:05.460Z,49.80
2023-05-23T18:41:33.918Z,49.67
2023-05-23T18:44:02.566Z,50.11
2023-05-23T18:46:30.927Z,51.55
2023-05-23T18:49:02.217Z,51.18
2023-05-23T18:51:32.435Z,51.34
2023-05-23T18:54:02.976Z,51.64
2023-05-23T18:56:34.978Z,51.91
2023-05-23T18:59:03.803Z,52.13
2023-05-23T19:01:32.416Z,51.87
2023-05-23T19:04:05.025Z,51.89
2023-05-23T19:06:33.503Z,53.49
2023-05-23T19:09:01.902Z,52.87
2023-05-23T19:11:30.449Z,52.91
2023-05-23T19:13:58.658Z,53.04
2023-05-23T19:16:27.612Z,53.33
2023-05-23T19:18:56.032Z,53.17
2023-05-23T19:21:25.712Z,53.84
2023-05-23T19:23:54.040Z,54.47
2023-05-23T19:26:22.275Z,54.25
2023-05-23T19:28:53.867Z,55.02
2023-05-23T19:31:22.384Z,54.78
2023-05-23T19:33:51.142Z,55.23
2023-05-23T19:36:19.797Z,54.88
2023-05-23T19:38:50.069Z,55.10
2023-05-23T19:41:20.260Z,55.73
2023-05-23T19:43:49.131Z,55.50
2023-05-23T19:46:18.465Z,56.27
2023-05-23T19:48:46.966Z,56.69
2023-05-23T19:51:16.063Z,56.37
2023-05-23T19:53:44.355Z,56.90
2023-05-23T19:56:14.237Z,58.24
2023-05-23T19:58:42.900Z,57.46
2023-05-23T20:01:11.502Z,56.81
2023-05-23T20:03:39.959Z,57.24
2023-05-23T20:06:08.308Z,57.33
2023-05-23T20:08:36.663Z,58.23
2023-05-23T20:11:05.465Z,58.29
2023-05-23T20:13:35.333Z,57.85
2023-05-23T20:16:03.977Z,58.17
2023-05-23T20:18:32.289Z,57.91
2023-05-23T20:21:02.889Z,57.61
2023-05-23T20:23:32.892Z,58.46
2023-05-23T20:26:01.890Z,57.75
2023-05-23T20:28:36.250Z,58.17
2023-05-23T20:31:04.935Z,58.68
2023-05-23T20:33:34.398Z,58.69
2023-05-23T20:36:03.620Z,58.75
2023-05-23T20:38:34.251Z,58.96
2023-05-23T20:41:06.353Z,59.79
2023-05-23T20:43:37.453Z,59.79
2023-05-23T20:46:07.182Z,60.98
2023-05-23T20:48:36.010Z,60.41
2023-05-23T20:51:06.478Z,60.92
2023-05-23T20:53:35.058Z,61.44
2023-05-23T20:56:08.270Z,61.82
2023-05-23T20:58:38.178Z,62.04
2023-05-23T21:01:08.085Z,61.38
2023-05-23T21:03:36.924Z,61.30
2023-05-23T21:06:06.119Z,61.46
2023-05-23T21:08:34.950Z,62.08
2023-05-23T21:11:03.786Z,63.26
2023-05-23T21:13:32.113Z,63.41
2023-05-23T21:16:02.175Z,63.17
2023-05-23T21:18:30.917Z,62.94
2023-05-23T21:20:59.180Z,63.62
2023-05-23T21:23:27.902Z,63.41
2023-05-23T21:25:56.941Z,63.91
2023-05-23T21:28:25.490Z,63.20
2023-05-23T21:30:54.160Z,63.14
2023-05-23T21:33:24.253Z,63.19
2023-05-23T21:35:52.985Z,63.78
2023-05-23T21:38:21.457Z,63.36
2023-05-23T21:40:49.993Z,63.95
2023-05-23T21:43:18.929Z,63.83
2023-05-23T21:45:47.229Z,64.10
2023-05-23T21:48:15.722Z,64.23
2023-05-23T21:50:45.480Z,65.02
2023-05-23T21:53:14.477Z,65.49
2023-05-23T21:55:42.819Z,66.07
2023-05-23T21:58:11.656Z,66.55
2023-05-23T22:00:45.621Z,67.08
2023-05-23T22:03:14.634Z,67.26
2023-05-23T22:05:45.585Z,67.83
2023-05-23T22:08:16.296Z,68.49
2023-05-23T22:10:44.702Z,68.87
2023-05-23T22:13:17.548Z,68.50
2023-05-23T22:16:00.668Z,68.99
2023-05-23T22:18:34.594Z,69.28
2023-05-23T22:21:12.159Z,70.05
2023-05-23T22:23:43.519Z,70.80
2023-05-23T22:26:13.106Z,71.31
2023-05-23T22:28:41.379Z,70.82
2023-05-23T22:31:12.109Z,70.52
2023-05-23T22:33:45.261Z,71.77
2023-05-23T22:36:17.727Z,72.24
2023-05-23T22:38:50.105Z,71.23
2023-05-23T22:41:18.586Z,71.50
2023-05-23T22:43:50.892Z,71.83
2023-05-23T22:46:19.974Z,71.30
2023-05-23T22:48:49.463Z,71.40
2023-05-23T22:51:19.720Z,71.29
2023-05-23T22:53:48.031Z,71.62
2023-05-23T22:56:17.774Z,71.93
2023-05-23T22:58:46.081Z,72.18
2023-05-23T23:01:14.675Z,73.39
2023-05-23T23:03:43.744Z,73.86
2023-05-23T23:06:12.213Z,73.65
2023-05-23T23:08:42.333Z,73.77
2023-05-23T23:11:10.885Z,73.45
2023-05-23T23:13:40.725Z,72.60
2023-05-23T23:16:12.037Z,73.87
2023-05-23T23:18:40.283Z,74.26
2023-05-23T23:21:08.499Z,73.68
2023-05-23T23:23:38.329Z,73.98
2023-05-23T23:26:06.651Z,74.41
2023-05-23T23:28:35.130Z,74.93
2023-05-23T23:31:04.832Z,75.08
2023-05-23T23:33:33.153Z,75.39
2023-05-23T23:36:02.054Z,75.56
2023-05-23T23:38:30.444Z,76.32
2023-05-23T23:40:59.167Z,76.42
2023-05-23T23:43:27.474Z,76.60
2023-05-23T23:45:56.082Z,76.32
2023-05-23T23:48:25.727Z,76.21
2023-05-23T23:50:54.139Z,77.69
2023-05-23T23:53:22.507Z,77.22
2023-05-23T23:55:50.994Z,77.42
2023-05-23T23:58:19.236Z,77.32
